createdAt,value
2022-10-18T00:01:47.429Z,101226.59
2022-10-18T00:04:50.851Z,101228.13
2022-10-18T00:07:54.102Z,101220.38
2022-10-18T00:10:59.141Z,101230.50
2022-10-18T00:14:02.827Z,101223.50
2022-10-18T00:17:06.199Z,101226.56
2022-10-18T00:20:10.871Z,101223.97
2022-10-18T00:23:14.120Z,101218.63
2022-10-18T00:26:22.162Z,101209.63
2022-10-18T00:29:25.513Z,101212.66
2022-10-18T00:32:29.064Z,101203.31
2022-10-18T00:35:35.211Z,101198.34
2022-10-18T00:38:39.079Z,101193.47
2022-10-18T00:41:43.924Z,101197.88
2022-10-18T00:45:15.643Z,101203.72
2022-10-18T00:48:21.201Z,101202.03
2022-10-18T00:51:28.075Z,101200.56
2022-10-18T00:54:34.839Z,101203.50
2022-10-18T00:57:40.858Z,101205.38
2022-10-18T01:00:44.284Z,101203.59
2022-10-18T01:03:47.589Z,101198.59
2022-10-18T01:06:59.124Z,101196.59
2022-10-18T01:10:10.904Z,101187.69
2022-10-18T01:13:26.396Z,101187.44
2022-10-18T01:16:37.863Z,101182.50
2022-10-18T01:20:17.341Z,101180.00
2022-10-18T01:23:29.678Z,101173.84
2022-10-18T01:26:50.501Z,101172.03
2022-10-18T01:30:10.118Z,101175.38
2022-10-18T01:33:27.802Z,101173.47
2022-10-18T01:36:35.053Z,101171.38
2022-10-18T01:39:42.806Z,101178.63
2022-10-18T01:42:47.683Z,101164.56
2022-10-18T01:45:52.059Z,101173.78
2022-10-18T01:48:57.548Z,101182.94
2022-10-18T01:52:00.791Z,101178.91
2022-10-18T01:55:05.829Z,101179.84
2022-10-18T01:58:20.381Z,101174.38
2022-10-18T02:01:32.646Z,101169.97
2022-10-18T02:04:45.034Z,101163.53
2022-10-18T02:08:00.427Z,101166.22
2022-10-18T02:11:18.366Z,101169.47
2022-10-18T02:14:24.076Z,101164.25
2022-10-18T02:17:29.942Z,101154.34
2022-10-18T02:20:36.598Z,101152.91
2022-10-18T02:23:40.421Z,101144.53
2022-10-18T02:26:43.866Z,101147.31
2022-10-18T02:29:47.769Z,101147.66
2022-10-18T02:32:58.600Z,101152.69
2022-10-18T02:36:08.325Z,101150.06
2022-10-18T02:39:15.570Z,101159.09
2022-10-18T02:42:18.853Z,101156.59
2022-10-18T02:45:22.648Z,101154.91
2022-10-18T02:48:25.906Z,101159.91
2022-10-18T02:51:30.527Z,101165.19
2022-10-18T02:54:33.900Z,101168.84
2022-10-18T02:57:37.445Z,101167.31
2022-10-18T03:00:40.670Z,101170.91
2022-10-18T03:03:43.802Z,101171.72
2022-10-18T03:06:48.430Z,101181.06
2022-10-18T03:09:51.671Z,101166.97
2022-10-18T03:12:54.811Z,101172.91
2022-10-18T03:15:58.011Z,101179.34
2022-10-18T03:19:01.305Z,101176.22
2022-10-18T03:22:06.129Z,101175.16
2022-10-18T03:25:09.779Z,101179.69
2022-10-18T03:28:13.057Z,101179.97
2022-10-18T03:31:16.276Z,101178.34
2022-10-18T03:34:19.650Z,101179.88
2022-10-18T03:37:24.360Z,101181.00
2022-10-18T03:40:27.655Z,101186.91
2022-10-18T03:43:31.043Z,101182.53
2022-10-18T03:46:34.280Z,101187.00
2022-10-18T03:49:37.580Z,101185.09
2022-10-18T03:52:42.192Z,101184.63
2022-10-18T03:55:45.472Z,101189.41
2022-10-18T03:58:48.639Z,101186.88
2022-10-18T04:01:51.982Z,101187.22
2022-10-18T04:04:55.260Z,101178.34
2022-10-18T04:07:59.972Z,101180.91
2022-10-18T04:11:08.393Z,101188.38
2022-10-18T04:14:11.633Z,101184.94
2022-10-18T04:17:14.895Z,101185.41
2022-10-18T04:20:18.647Z,101185.31
2022-10-18T04:23:23.223Z,101181.97
2022-10-18T04:26:26.502Z,101172.34
2022-10-18T04:29:29.701Z,101174.63
2022-10-18T04:32:32.972Z,101165.56
2022-10-18T04:35:36.180Z,101174.28
2022-10-18T04:38:40.903Z,101171.31
2022-10-18T04:41:44.379Z,101179.47
2022-10-18T04:44:47.676Z,101178.22
2022-10-18T04:47:50.851Z,101181.88
2022-10-18T04:50:54.189Z,101178.59
2022-10-18T04:53:58.789Z,101181.09
2022-10-18T04:57:01.978Z,101187.84
2022-10-18T05:00:06.303Z,101184.13
2022-10-18T05:03:09.903Z,101187.97
2022-10-18T05:06:13.187Z,101177.09
2022-10-18T05:09:18.020Z,101178.25
2022-10-18T05:12:22.279Z,101182.69
2022-10-18T05:15:25.528Z,101181.09
2022-10-18T05:18:28.726Z,101176.59
2022-10-18T05:21:31.956Z,101191.06
2022-10-18T05:24:36.581Z,101176.56
2022-10-18T05:27:39.800Z,101184.78
2022-10-18T05:30:43.136Z,101182.22
2022-10-18T05:33:46.301Z,101182.53
2022-10-18T05:36:50.181Z,101187.34
2022-10-18T05:39:54.772Z,101184.47
2022-10-18T05:42:57.945Z,101185.38
2022-10-18T05:46:01.238Z,101188.34
2022-10-18T05:49:04.544Z,101181.84
2022-10-18T05:52:07.755Z,101185.34
2022-10-18T05:55:12.408Z,101185.16
2022-10-18T05:58:15.615Z,101184.84
2022-10-18T06:01:18.896Z,101188.25
2022-10-18T06:04:22.347Z,101187.47
2022-10-18T06:07:25.608Z,101193.50
2022-10-18T06:10:30.266Z,101191.00
2022-10-18T06:13:33.933Z,101195.31
2022-10-18T06:19:45.455Z,101192.03
2022-10-18T06:22:48.685Z,101195.38
2022-10-18T06:25:53.342Z,101198.59
2022-10-18T06:28:56.799Z,101207.63
2022-10-18T06:32:00.041Z,101207.66
2022-10-18T06:35:03.404Z,101198.75
2022-10-18T06:38:07.430Z,101201.97
2022-10-18T06:41:12.244Z,101201.59
2022-10-18T06:44:15.525Z,101201.78
2022-10-18T06:47:18.741Z,101200.19
2022-10-18T06:50:22.023Z,101201.72
2022-10-18T06:53:25.454Z,101200.09
2022-10-18T06:56:30.352Z,101204.28
2022-10-18T06:59:33.557Z,101201.41
2022-10-18T07:02:37.546Z,101200.31
2022-10-18T07:05:40.812Z,101195.03
2022-10-18T07:08:44.861Z,101193.69
2022-10-18T07:11:49.560Z,101195.47
2022-10-18T07:14:52.693Z,101186.34
2022-10-18T07:17:55.916Z,101186.22
2022-10-18T07:20:59.091Z,101184.13
2022-10-18T07:24:02.315Z,101181.34
2022-10-18T07:27:07.110Z,101170.94
2022-10-18T07:30:12.359Z,101168.22
2022-10-18T07:33:15.556Z,101166.09
2022-10-18T07:36:21.167Z,101162.81
2022-10-18T07:39:24.622Z,101167.09
2022-10-18T07:42:29.174Z,101160.91
2022-10-18T07:45:33.343Z,101150.03
2022-10-18T07:48:36.546Z,101146.47
2022-10-18T07:51:39.724Z,101148.56
2022-10-18T07:54:42.984Z,101140.44
2022-10-18T07:57:47.637Z,101134.28
2022-10-18T08:00:50.835Z,101127.81
2022-10-18T08:03:54.418Z,101127.22
2022-10-18T08:06:57.641Z,101131.13
2022-10-18T08:10:00.899Z,101119.25
2022-10-18T08:13:05.533Z,101124.53
2022-10-18T08:16:11.081Z,101119.13
2022-10-18T08:19:14.247Z,101118.13
2022-10-18T08:22:17.471Z,101114.06
2022-10-18T08:25:20.725Z,101116.25
2022-10-18T08:28:25.360Z,101108.41
2022-10-18T08:31:28.641Z,101094.78
2022-10-18T08:34:31.960Z,101092.84
2022-10-18T08:37:35.639Z,101094.63
2022-10-18T08:40:45.055Z,101086.09
2022-10-18T08:43:57.662Z,101081.41
2022-10-18T08:47:05.513Z,101079.63
2022-10-18T08:50:15.971Z,101069.16
2022-10-18T08:53:25.273Z,101065.09
2022-10-18T08:56:28.835Z,101055.56
2022-10-18T08:59:40.337Z,101053.59
2022-10-18T09:02:57.500Z,101054.56
2022-10-18T09:06:11.289Z,101050.47
2022-10-18T09:09:37.017Z,101042.91
2022-10-18T09:12:56.368Z,101036.72
2022-10-18T09:16:02.730Z,101043.31
2022-10-18T09:19:15.147Z,101040.00
2022-10-18T09:22:20.681Z,101036.38
2022-10-18T09:25:26.886Z,101034.19
2022-10-18T09:28:53.474Z,101026.97
2022-10-18T09:32:12.877Z,101018.34
2022-10-18T09:35:22.869Z,101017.59
2022-10-18T09:38:32.762Z,101014.25
2022-10-18T09:41:41.748Z,101004.41
2022-10-18T09:44:49.791Z,101000.72
2022-10-18T09:48:03.376Z,101000.94
2022-10-18T09:51:12.541Z,100989.75
2022-10-18T09:54:22.332Z,100986.03
2022-10-18T09:57:32.712Z,100981.41
2022-10-18T10:00:39.530Z,100966.41
2022-10-18T10:03:44.297Z,100956.81
2022-10-18T10:06:52.187Z,100958.97
2022-10-18T10:09:58.777Z,100950.22
2022-10-18T10:13:07.928Z,100949.31
2022-10-18T10:16:11.482Z,100934.97
2022-10-18T10:19:25.613Z,100937.94
2022-10-18T10:22:34.839Z,100920.66
2022-10-18T10:25:42.346Z,100915.88
2022-10-18T10:28:49.155Z,100912.31
2022-10-18T10:32:03.851Z,100909.03
2022-10-18T10:35:34.059Z,100896.66
2022-10-18T10:38:46.157Z,100884.00
2022-10-18T10:41:51.642Z,100883.56
2022-10-18T10:44:56.663Z,100861.22
2022-10-18T10:48:17.232Z,100856.31
2022-10-18T10:51:31.311Z,100850.84
2022-10-18T10:54:51.201Z,100839.34
2022-10-18T10:57:57.346Z,100830.22
2022-10-18T11:01:19.146Z,100821.50
2022-10-18T11:04:28.274Z,100814.09
2022-10-18T11:07:37.093Z,100812.47
2022-10-18T11:10:53.931Z,100804.03
2022-10-18T11:14:21.109Z,100801.78
2022-10-18T11:17:33.992Z,100793.75
2022-10-18T11:20:42.037Z,100785.13
2022-10-18T11:23:47.398Z,100772.22
2022-10-18T11:26:55.992Z,100764.84
2022-10-18T11:30:15.460Z,100766.22
2022-10-18T11:33:50.325Z,100750.81
2022-10-18T11:37:27.063Z,100748.75
2022-10-18T11:40:43.839Z,100731.75
2022-10-18T11:44:03.008Z,100733.59
2022-10-18T11:47:15.223Z,100731.88
2022-10-18T11:50:29.847Z,100721.28
2022-10-18T11:53:39.928Z,100722.53
2022-10-18T11:56:53.467Z,100716.75
2022-10-18T12:00:10.214Z,100705.69
2022-10-18T12:03:34.397Z,100699.09
2022-10-18T12:06:40.057Z,100697.50
2022-10-18T12:12:58.448Z,100689.88
2022-10-18T12:16:05.315Z,100681.47
2022-10-18T12:19:22.106Z,100671.63
2022-10-18T12:22:34.341Z,100666.09
2022-10-18T12:25:41.556Z,100665.28
2022-10-18T12:28:56.280Z,100658.28
2022-10-18T12:32:02.972Z,100656.44
2022-10-18T12:35:13.744Z,100648.00
2022-10-18T12:38:22.653Z,100641.84
2022-10-18T12:41:29.186Z,100643.06
2022-10-18T12:44:35.456Z,100638.19
2022-10-18T12:47:38.759Z,100638.78
2022-10-18T12:50:45.020Z,100629.16
2022-10-18T12:53:50.805Z,100632.16
2022-10-18T12:56:54.038Z,100631.38
2022-10-18T12:59:58.699Z,100627.09
2022-10-18T13:03:34.847Z,100626.06
2022-10-18T13:07:16.299Z,100614.97
2022-10-18T13:10:36.053Z,100607.38
2022-10-18T13:13:54.334Z,100599.53
2022-10-18T13:17:05.769Z,100600.25
2022-10-18T13:20:27.318Z,100590.59
2022-10-18T13:23:44.799Z,100596.97
2022-10-18T13:27:24.401Z,100586.09
2022-10-18T13:30:41.048Z,100587.94
2022-10-18T13:33:45.783Z,100583.63
2022-10-18T13:36:57.926Z,100582.09
2022-10-18T13:40:23.978Z,100577.22
2022-10-18T13:44:00.606Z,100575.81
2022-10-18T13:47:15.365Z,100567.41
2022-10-18T13:50:45.699Z,100562.06
2022-10-18T13:53:59.039Z,100558.56
2022-10-18T13:57:18.566Z,100564.06
2022-10-18T14:00:48.793Z,100555.41
2022-10-18T14:04:21.012Z,100557.06
2022-10-18T14:07:28.330Z,100550.28
2022-10-18T14:10:57.226Z,100546.84
2022-10-18T14:14:14.318Z,100548.88
2022-10-18T14:17:28.358Z,100536.28
2022-10-18T14:20:49.082Z,100527.44
2022-10-18T14:23:54.661Z,100528.16
2022-10-18T14:27:17.634Z,100521.78
2022-10-18T14:30:22.192Z,100517.00
2022-10-18T14:33:28.271Z,100515.38
2022-10-18T14:36:38.738Z,100520.59
2022-10-18T14:39:43.404Z,100505.41
2022-10-18T14:42:49.994Z,100508.66
2022-10-18T14:45:53.253Z,100513.09
2022-10-18T14:48:59.593Z,100503.09
2022-10-18T14:52:03.658Z,100508.72
2022-10-18T14:55:20.251Z,100507.78
2022-10-18T14:58:25.465Z,100500.41
2022-10-18T15:01:31.986Z,100494.94
2022-10-18T15:04:35.898Z,100495.31
2022-10-18T15:07:39.912Z,100488.13
2022-10-18T15:10:46.223Z,100491.88
2022-10-18T15:13:55.076Z,100488.34
2022-10-18T15:17:04.439Z,100492.09
2022-10-18T15:20:22.776Z,100487.84
2022-10-18T15:23:31.384Z,100482.66
2022-10-18T15:26:47.232Z,100487.41
2022-10-18T15:29:51.673Z,100482.13
2022-10-18T15:32:58.233Z,100479.13
2022-10-18T15:36:10.910Z,100481.03
2022-10-18T15:39:19.487Z,100474.00
2022-10-18T15:42:40.095Z,100465.88
2022-10-18T15:49:20.990Z,100478.97
2022-10-18T15:52:37.799Z,100480.09
2022-10-18T15:55:55.335Z,100474.22
2022-10-18T15:59:05.064Z,100470.03
2022-10-18T16:02:13.657Z,100477.72
2022-10-18T16:05:18.002Z,100471.91
2022-10-18T16:08:24.271Z,100478.09
2022-10-18T16:11:28.382Z,100478.19
2022-10-18T16:14:33.374Z,100478.34
2022-10-18T16:17:39.123Z,100482.81
2022-10-18T16:20:42.656Z,100481.72
2022-10-18T16:23:45.976Z,100481.28
2022-10-18T16:27:01.404Z,100480.00
2022-10-18T16:30:13.383Z,100484.66
2022-10-18T16:33:19.265Z,100480.72
2022-10-18T16:36:26.763Z,100488.03
2022-10-18T16:39:34.760Z,100491.53
2022-10-18T16:42:38.275Z,100490.13
2022-10-18T16:45:43.123Z,100484.56
2022-10-18T16:48:47.489Z,100492.97
2022-10-18T16:51:50.883Z,100491.16
2022-10-18T16:54:54.239Z,100496.13
2022-10-18T16:57:57.560Z,100497.56
2022-10-18T17:01:04.229Z,100494.47
2022-10-18T17:04:10.131Z,100504.06
2022-10-18T17:07:23.600Z,100494.69
2022-10-18T17:10:27.747Z,100493.31
2022-10-18T17:13:31.139Z,100497.09
2022-10-18T17:16:38.936Z,100492.50
2022-10-18T17:19:42.579Z,100495.00
2022-10-18T17:22:45.784Z,100494.66
2022-10-18T17:26:04.744Z,100492.34
2022-10-18T17:29:12.244Z,100494.78
2022-10-18T17:32:17.025Z,100490.53
2022-10-18T17:35:20.483Z,100487.59
2022-10-18T17:38:23.680Z,100478.00
2022-10-18T17:41:27.363Z,100479.97
2022-10-18T17:44:30.715Z,100495.34
2022-10-18T17:47:35.736Z,100487.63
2022-10-18T17:50:41.398Z,100487.25
2022-10-18T17:53:45.131Z,100490.94
2022-10-18T17:56:52.199Z,100489.41
2022-10-18T17:59:59.042Z,100487.63
2022-10-18T18:03:03.919Z,100482.00
2022-10-18T18:06:15.658Z,100485.66
2022-10-18T18:09:19.308Z,100483.03
2022-10-18T18:12:22.538Z,100489.28
2022-10-18T18:15:26.067Z,100480.38
2022-10-18T18:18:30.867Z,100480.38
2022-10-18T18:21:34.953Z,100478.06
2022-10-18T18:24:38.263Z,100475.78
2022-10-18T18:27:41.531Z,100477.41
2022-10-18T18:30:44.780Z,100475.09
2022-10-18T18:33:49.471Z,100476.94
2022-10-18T18:36:53.056Z,100470.78
2022-10-18T18:39:56.364Z,100470.63
2022-10-18T18:43:07.269Z,100469.63
2022-10-18T18:46:22.958Z,100470.34
2022-10-18T18:49:28.231Z,100479.00
2022-10-18T18:52:31.837Z,100484.88
2022-10-18T18:55:39.756Z,100474.53
2022-10-18T18:58:44.196Z,100476.31
2022-10-18T19:01:47.553Z,100477.78
2022-10-18T19:04:52.197Z,100476.75
2022-10-18T19:07:55.494Z,100473.94
2022-10-18T19:10:58.779Z,100466.56
2022-10-18T19:14:03.235Z,100466.25
2022-10-18T19:17:07.954Z,100465.78
2022-10-18T19:20:15.151Z,100468.38
2022-10-18T19:23:18.437Z,100459.72
2022-10-18T19:26:37.955Z,100462.97
2022-10-18T19:29:42.074Z,100468.47
2022-10-18T19:32:45.316Z,100471.81
2022-10-18T19:35:49.969Z,100459.81
2022-10-18T19:38:53.152Z,100471.13
2022-10-18T19:41:58.576Z,100459.16
2022-10-18T19:45:03.065Z,100462.88
2022-10-18T19:48:07.152Z,100467.09
2022-10-18T19:51:16.005Z,100460.00
2022-10-18T19:54:23.900Z,100461.31
2022-10-18T19:57:27.243Z,100463.16
2022-10-18T20:00:30.646Z,100465.41
2022-10-18T20:03:33.893Z,100473.38
2022-10-18T20:06:39.614Z,100457.81
2022-10-18T20:09:42.834Z,100464.19
2022-10-18T20:12:49.776Z,100465.47
2022-10-18T20:15:53.607Z,100468.28
2022-10-18T20:18:58.685Z,100462.38
2022-10-18T20:22:03.294Z,100463.78
2022-10-18T20:25:07.024Z,100467.47
2022-10-18T20:28:10.431Z,100463.91
2022-10-18T20:31:15.587Z,100457.59
2022-10-18T20:34:21.578Z,100465.69
2022-10-18T20:37:26.234Z,100449.78
2022-10-18T20:40:29.538Z,100451.25
2022-10-18T20:43:32.854Z,100449.84
2022-10-18T20:46:38.357Z,100437.72
2022-10-18T20:49:41.657Z,100444.56
2022-10-18T20:52:51.167Z,100428.19
2022-10-18T20:56:02.881Z,100434.97
2022-10-18T20:59:09.478Z,100428.38
2022-10-18T21:02:14.419Z,100424.88
2022-10-18T21:05:18.454Z,100434.22
2022-10-18T21:08:23.121Z,100434.22
2022-10-18T21:11:27.767Z,100418.03
2022-10-18T21:14:31.084Z,100418.03
2022-10-18T21:17:34.503Z,100417.81
2022-10-18T21:20:37.862Z,100406.25
2022-10-18T21:23:42.983Z,100406.44
2022-10-18T21:26:46.518Z,100402.00
2022-10-18T21:29:50.163Z,100392.75
2022-10-18T21:32:53.380Z,100396.88
2022-10-18T21:35:56.634Z,100390.66
2022-10-18T21:39:01.508Z,100384.66
2022-10-18T21:42:04.809Z,100379.09
2022-10-18T21:45:09.279Z,100377.84
2022-10-18T21:48:12.640Z,100373.31
2022-10-18T21:51:18.783Z,100358.59
2022-10-18T21:54:23.938Z,100367.16
2022-10-18T21:57:27.429Z,100360.31
2022-10-18T22:00:30.656Z,100349.47
2022-10-18T22:03:33.934Z,100347.91
2022-10-18T22:06:37.690Z,100346.31
2022-10-18T22:09:42.345Z,100340.44
2022-10-18T22:12:45.690Z,100340.84
2022-10-18T22:15:48.943Z,100334.81
2022-10-18T22:18:53.173Z,100330.09
2022-10-18T22:21:56.427Z,100326.56
2022-10-18T22:25:01.192Z,100321.38
2022-10-18T22:28:04.486Z,100312.28
2022-10-18T22:31:08.051Z,100314.31
2022-10-18T22:34:14.061Z,100314.88
2022-10-18T22:37:17.282Z,100302.69
2022-10-18T22:40:21.959Z,100298.63
2022-10-18T22:43:25.271Z,100300.16
2022-10-18T22:46:28.988Z,100289.03
2022-10-18T22:49:32.250Z,100296.22
2022-10-18T22:52:35.930Z,100289.72
2022-10-18T22:55:40.687Z,100289.94
2022-10-18T22:58:43.945Z,100283.56
2022-10-18T23:01:47.223Z,100289.19
2022-10-18T23:04:50.454Z,100286.16
2022-10-18T23:07:53.634Z,100280.25
2022-10-18T23:11:00.154Z,100269.03
2022-10-18T23:14:04.267Z,100266.63
2022-10-18T23:17:07.470Z,100255.94
2022-10-18T23:20:11.476Z,100253.59
2022-10-18T23:23:15.216Z,100261.50
2022-10-18T23:26:22.808Z,100249.91
2022-10-18T23:29:26.012Z,100243.28
2022-10-18T23:32:29.658Z,100237.22
2022-10-18T23:35:32.916Z,100235.25
2022-10-18T23:38:36.675Z,100229.13
2022-10-18T23:41:41.241Z,100223.97
2022-10-18T23:44:45.290Z,100221.41
2022-10-18T23:47:48.553Z,100219.03
2022-10-18T23:50:51.792Z,100217.47
2022-10-18T23:53:54.985Z,100214.75
2022-10-18T23:56:59.634Z,100218.78
